Time;durP1;ratioP1;P1;durP2;ratioP2;P2;SDS_P1;SDS_P2;PMS_P1;PMS_P2;Temp;Humidity;BMP_temperature;BMP_pressure;BME280_temperature;BME280_humidity;BME280_pressure;Samples;Min_cycle;Max_cycle;Signal;HPM_P1;HPM_P2
2022/04/04 00:02:04;;;;;;;;;15.33;15.33;;;;;;;;5028244;28;8851;-79
2022/04/04 00:04:31;;;;;;;;;15.00;12.67;;;;;;;;5039938;28;9000;-79
2022/04/04 00:06:59;;;;;;;;;12.00;12.00;;;;;;;;5032251;28;8888;-81
2022/04/04 00:09:27;;;;;;;;;12.33;12.33;;;;;;;;5034369;28;8911;-80
2022/04/04 00:11:54;;;;;;;;;12.00;9.00;;;;;;;;5032108;28;8915;-77
2022/04/04 00:14:22;;;;;;;;;16.00;15.00;;;;;;;;5037566;28;8995;-78
2022/04/04 00:16:51;;;;;;;;;12.67;12.67;;;;;;;;5037368;28;8853;-77
2022/04/04 00:19:22;;;;;;;;;18.67;17.33;;;;;;;;5039629;28;8919;-77
2022/04/04 00:21:50;;;;;;;;;16.67;15.33;;;;;;;;5032186;28;8970;-79
2022/04/04 00:24:17;;;;;;;;;16.33;16.33;;;;;;;;5034215;28;8875;-79
2022/04/04 00:26:44;;;;;;;;;16.00;16.00;;;;;;;;5027114;28;9685;-79
2022/04/04 00:29:12;;;;;;;;;16.00;15.00;;;;;;;;5033894;28;8950;-79
2022/04/04 00:31:39;;;;;;;;;22.33;20.33;;;;;;;;5035774;28;8821;-79
2022/04/04 00:34:08;;;;;;;;;15.33;15.33;;;;;;;;5035712;28;8857;-80
2022/04/04 00:36:36;;;;;;;;;13.67;13.67;;;;;;;;5033233;28;8873;-79
2022/04/04 00:39:03;;;;;;;;;17.00;12.00;;;;;;;;5036110;28;8974;-79
2022/04/04 00:41:31;;;;;;;;;17.33;15.00;;;;;;;;5032554;28;9697;-79
2022/04/04 00:43:58;;;;;;;;;18.00;15.67;;;;;;;;5038069;28;8861;-80
2022/04/04 00:46:25;;;;;;;;;14.00;14.00;;;;;;;;5036587;28;8875;-77
2022/04/04 00:48:53;;;;;;;;;19.00;16.33;;;;;;;;5035475;28;8982;-79
2022/04/04 00:51:21;;;;;;;;;12.33;12.33;;;;;;;;5038082;28;8861;-78
2022/04/04 00:53:49;;;;;;;;;11.67;11.67;;;;;;;;5036125;28;8891;-79
2022/04/04 00:56:16;;;;;;;;;22.67;13.00;;;;;;;;5036489;28;8869;-79
2022/04/04 00:58:44;;;;;;;;;20.67;18.33;;;;;;;;5040414;28;8877;-80
2022/04/04 01:01:11;;;;;;;;;8.00;6.00;;;;;;;;5034911;28;8878;-78
2022/04/04 01:03:38;;;;;;;;;17.67;15.33;;;;;;;;5040350;28;8901;-79
2022/04/04 01:06:06;;;;;;;;;20.33;18.33;;;;;;;;5042080;28;8901;-79
2022/04/04 01:08:35;;;;;;;;;15.33;15.33;;;;;;;;5040627;28;8860;-80
2022/04/04 01:11:02;;;;;;;;;16.00;14.33;;;;;;;;5038883;28;8884;-79
2022/04/04 01:13:30;;;;;;;;;19.33;16.67;;;;;;;;5038855;28;8857;-79
2022/04/04 01:15:57;;;;;;;;;15.00;11.33;;;;;;;;5034723;28;8876;-79
2022/04/04 01:18:24;;;;;;;;;16.67;15.00;;;;;;;;5033986;28;8888;-79
2022/04/04 01:20:52;;;;;;;;;17.00;15.33;;;;;;;;5033576;28;8899;-78
2022/04/04 01:23:24;;;;;;;;;26.67;19.67;;;;;;;;5033875;28;8889;-80
2022/04/04 01:25:53;;;;;;;;;19.33;16.67;;;;;;;;5043040;28;8915;-79
2022/04/04 01:28:21;;;;;;;;;11.00;11.00;;;;;;;;5040747;28;8875;-79
2022/04/04 01:30:52;;;;;;;;;19.67;15.00;;;;;;;;5044017;28;8803;-79
2022/04/04 01:33:20;;;;;;;;;15.67;15.67;;;;;;;;5036867;28;8858;-80
2022/04/04 01:35:47;;;;;;;;;14.67;12.67;;;;;;;;5035345;28;8879;-79
2022/04/04 01:38:14;;;;;;;;;20.33;18.33;;;;;;;;5039078;28;8897;-79
2022/04/04 01:40:42;;;;;;;;;20.67;18.00;;;;;;;;5032910;28;8879;-77
2022/04/04 01:43:11;;;;;;;;;14.33;14.33;;;;;;;;5039854;28;8878;-79
2022/04/04 01:48:23;;;;;;;;;16.00;16.00;;;;;;;;5041614;28;8837;-80
2022/04/04 01:50:50;;;;;;;;;17.33;17.33;;;;;;;;5033853;28;8865;-80
2022/04/04 01:53:27;;;;;;;;;18.00;18.00;;;;;;;;5034975;28;8858;-80
2022/04/04 01:55:55;;;;;;;;;21.00;16.67;;;;;;;;5033014;28;8923;-80
2022/04/04 01:58:25;;;;;;;;;21.00;16.00;;;;;;;;5036429;28;9150;-78
2022/04/04 02:00:53;;;;;;;;;16.00;16.00;;;;;;;;5037482;28;8906;-79
2022/04/04 02:03:21;;;;;;;;;13.67;13.67;;;;;;;;5037220;28;8854;-79
2022/04/04 02:05:48;;;;;;;;;15.00;15.00;;;;;;;;5041100;28;8868;-79
2022/04/04 02:08:16;;;;;;;;;17.00;13.33;;;;;;;;5043647;28;9670;-79
2022/04/04 02:10:44;;;;;;;;;17.00;17.00;;;;;;;;5038623;28;8919;-78
2022/04/04 02:13:11;;;;;;;;;22.00;18.00;;;;;;;;5038380;28;8907;-79
2022/04/04 02:15:41;;;;;;;;;14.33;12.67;;;;;;;;5040413;28;8869;-79
2022/04/04 02:18:08;;;;;;;;;18.00;18.00;;;;;;;;5038284;28;8845;-80
2022/04/04 02:20:35;;;;;;;;;15.00;14.00;;;;;;;;5039395;28;8893;-78
2022/04/04 02:23:03;;;;;;;;;18.00;18.00;;;;;;;;5037407;28;8968;-79
2022/04/04 02:25:30;;;;;;;;;11.67;10.67;;;;;;;;5042256;28;9619;-79
2022/04/04 02:27:57;;;;;;;;;20.67;19.00;;;;;;;;5034243;28;8889;-79
2022/04/04 02:30:25;;;;;;;;;21.33;16.33;;;;;;;;5039942;28;8812;-79
2022/04/04 02:32:53;;;;;;;;;22.00;15.67;;;;;;;;5040117;28;8865;-79
2022/04/04 02:35:21;;;;;;;;;16.67;15.67;;;;;;;;5039474;28;8853;-79
2022/04/04 02:37:49;;;;;;;;;17.00;17.00;;;;;;;;5041795;28;8885;-79
2022/04/04 02:40:16;;;;;;;;;21.00;19.00;;;;;;;;5032257;28;9675;-79
2022/04/04 02:42:44;;;;;;;;;19.67;17.67;;;;;;;;5039136;28;8920;-77
2022/04/04 02:45:12;;;;;;;;;20.33;15.00;;;;;;;;5032918;28;8897;-79
2022/04/04 02:47:40;;;;;;;;;15.33;15.33;;;;;;;;5036457;28;8883;-80
2022/04/04 02:50:11;;;;;;;;;21.67;20.33;;;;;;;;5042891;28;8865;-80
2022/04/04 02:52:38;;;;;;;;;16.00;14.00;;;;;;;;5033863;28;8885;-80
2022/04/04 02:57:48;;;;;;;;;18.67;18.67;;;;;;;;5035522;28;8862;-80
2022/04/04 03:00:17;;;;;;;;;18.67;18.67;;;;;;;;5036961;28;8865;-79
2022/04/04 03:02:45;;;;;;;;;20.67;20.67;;;;;;;;5034357;28;8985;-80
2022/04/04 03:05:14;;;;;;;;;19.33;16.00;;;;;;;;5034871;28;8873;-80
2022/04/04 03:07:42;;;;;;;;;18.00;18.00;;;;;;;;5031481;28;8882;-80
2022/04/04 03:10:10;;;;;;;;;21.67;17.67;;;;;;;;5037100;28;8869;-80
2022/04/04 03:12:42;;;;;;;;;17.33;17.33;;;;;;;;5030500;28;8880;-79
2022/04/04 03:15:12;;;;;;;;;22.67;17.00;;;;;;;;5039525;28;8857;-79
2022/04/04 03:17:40;;;;;;;;;23.00;21.00;;;;;;;;5039726;28;8857;-79
2022/04/04 03:20:09;;;;;;;;;15.67;15.33;;;;;;;;5033444;28;8869;-80
2022/04/04 03:22:39;;;;;;;;;19.67;11.00;;;;;;;;5035757;28;8873;-81
2022/04/04 03:25:08;;;;;;;;;16.33;15.33;;;;;;;;5038197;28;8861;-80
2022/04/04 03:27:36;;;;;;;;;18.67;14.00;;;;;;;;5033415;28;8843;-80
2022/04/04 03:30:04;;;;;;;;;33.33;20.67;;;;;;;;5031705;28;8937;-79
2022/04/04 03:32:31;;;;;;;;;19.00;19.00;;;;;;;;5033933;28;8883;-80
2022/04/04 03:34:59;;;;;;;;;20.00;20.00;;;;;;;;5040132;28;8857;-79
2022/04/04 03:37:26;;;;;;;;;19.33;19.33;;;;;;;;5036532;28;8897;-79
2022/04/04 03:39:55;;;;;;;;;18.33;18.33;;;;;;;;5033681;28;8924;-78
2022/04/04 03:42:22;;;;;;;;;16.33;12.67;;;;;;;;5034478;28;8860;-79
2022/04/04 03:44:50;;;;;;;;;17.00;14.67;;;;;;;;5037404;28;9680;-77
2022/04/04 03:47:18;;;;;;;;;17.67;17.67;;;;;;;;5031131;28;8916;-79
2022/04/04 03:49:45;;;;;;;;;16.33;16.33;;;;;;;;5033629;28;8853;-78
2022/04/04 03:52:12;;;;;;;;;13.67;13.67;;;;;;;;5040382;28;8873;-80
2022/04/04 03:54:40;;;;;;;;;20.00;18.33;;;;;;;;5067942;28;9002;-79
2022/04/04 03:57:10;;;;;;;;;16.33;16.33;;;;;;;;5035059;28;9623;-78
2022/04/04 03:59:37;;;;;;;;;16.33;16.33;;;;;;;;5033299;28;8869;-80
2022/04/04 04:02:05;;;;;;;;;14.67;14.67;;;;;;;;5035767;28;9397;-78
2022/04/04 04:04:32;;;;;;;;;18.00;18.00;;;;;;;;5039946;28;8889;-79
2022/04/04 04:06:59;;;;;;;;;13.33;13.33;;;;;;;;5016099;28;8875;-80
2022/04/04 04:09:27;;;;;;;;;11.00;11.00;;;;;;;;5037799;28;8980;-81
2022/04/04 04:11:56;;;;;;;;;14.67;14.00;;;;;;;;5033740;28;8875;-80
2022/04/04 04:14:25;;;;;;;;;12.33;12.33;;;;;;;;5033287;28;8875;-80
2022/04/04 04:16:52;;;;;;;;;12.67;12.67;;;;;;;;5041790;28;8896;-80
2022/04/04 04:22:05;;;;;;;;;10.00;10.00;;;;;;;;5032478;28;9582;-83
2022/04/04 04:24:32;;;;;;;;;17.00;15.00;;;;;;;;5034507;28;8868;-82
2022/04/04 04:26:59;;;;;;;;;15.33;15.33;;;;;;;;5030249;28;8907;-79
2022/04/04 04:29:28;;;;;;;;;10.33;10.33;;;;;;;;5032971;28;9004;-79
2022/04/04 04:31:56;;;;;;;;;15.00;14.33;;;;;;;;5027958;28;9771;-80
2022/04/04 04:34:23;;;;;;;;;18.67;18.67;;;;;;;;5028379;28;9053;-80
2022/04/04 04:36:51;;;;;;;;;19.00;19.00;;;;;;;;5023065;28;8876;-81
2022/04/04 04:39:18;;;;;;;;;19.00;15.00;;;;;;;;5038369;28;8884;-79
2022/04/04 04:41:47;;;;;;;;;22.33;19.33;;;;;;;;5039436;28;8901;-80
2022/04/04 04:44:14;;;;;;;;;24.33;17.00;;;;;;;;5034882;28;8854;-80
2022/04/04 04:46:44;;;;;;;;;13.67;12.00;;;;;;;;5035153;28;8848;-81
2022/04/04 04:49:11;;;;;;;;;16.67;14.33;;;;;;;;5031279;28;8858;-80
2022/04/04 04:51:40;;;;;;;;;19.00;15.67;;;;;;;;5038304;28;8886;-79
2022/04/04 04:54:08;;;;;;;;;15.67;12.67;;;;;;;;5036490;28;8846;-80
2022/04/04 04:56:36;;;;;;;;;23.33;18.00;;;;;;;;5044020;28;8904;-80
2022/04/04 04:59:04;;;;;;;;;16.67;15.67;;;;;;;;5040595;28;8900;-80
2022/04/04 05:01:31;;;;;;;;;18.00;15.67;;;;;;;;5038211;28;8830;-80
2022/04/04 05:04:00;;;;;;;;;21.67;20.33;;;;;;;;5039520;28;8877;-81
2022/04/04 05:06:27;;;;;;;;;17.33;17.33;;;;;;;;5040708;28;8893;-81
2022/04/04 05:08:57;;;;;;;;;20.33;18.00;;;;;;;;5040124;28;9658;-80
2022/04/04 05:11:25;;;;;;;;;23.00;22.00;;;;;;;;5039105;28;8916;-82
2022/04/04 05:13:53;;;;;;;;;33.00;22.33;;;;;;;;5040438;28;8855;-78
2022/04/04 05:16:20;;;;;;;;;24.00;24.00;;;;;;;;5038563;28;8867;-80
2022/04/04 05:18:47;;;;;;;;;24.67;19.00;;;;;;;;5039950;28;8937;-80
2022/04/04 05:21:16;;;;;;;;;22.67;21.67;;;;;;;;5036825;28;8984;-89
2022/04/04 05:23:47;;;;;;;;;21.67;21.67;;;;;;;;5034821;28;8907;-80
2022/04/04 05:26:14;;;;;;;;;18.67;16.00;;;;;;;;5028795;28;8896;-76
2022/04/04 05:28:42;;;;;;;;;26.33;26.33;;;;;;;;5030556;28;8903;-80
2022/04/04 05:31:10;;;;;;;;;21.33;21.33;;;;;;;;5026592;28;8820;-75
2022/04/04 05:33:39;;;;;;;;;22.33;21.67;;;;;;;;5033885;28;8869;-77
2022/04/04 05:36:07;;;;;;;;;20.33;20.33;;;;;;;;5034049;28;8893;-78
2022/04/04 05:38:36;;;;;;;;;15.67;15.67;;;;;;;;5033277;28;8886;-77
2022/04/04 05:41:04;;;;;;;;;20.33;20.33;;;;;;;;5033414;28;8889;-76
2022/04/04 05:43:31;;;;;;;;;20.33;18.33;;;;;;;;5030990;28;8872;-74
2022/04/04 05:45:58;;;;;;;;;21.33;21.33;;;;;;;;5035521;28;8967;-79
2022/04/04 05:48:30;;;;;;;;;23.33;22.00;;;;;;;;5038179;28;8893;-74
2022/04/04 05:50:57;;;;;;;;;20.00;20.00;;;;;;;;5038502;28;8939;-76
2022/04/04 05:53:25;;;;;;;;;18.33;18.33;;;;;;;;5040997;28;9655;-77
2022/04/04 05:55:53;;;;;;;;;18.67;18.67;;;;;;;;5062182;28;8876;-78
2022/04/04 05:58:20;;;;;;;;;15.33;15.33;;;;;;;;5035596;28;9607;-74
2022/04/04 06:00:48;;;;;;;;;18.67;18.67;;;;;;;;5043088;28;8834;-74
2022/04/04 06:03:15;;;;;;;;;14.00;14.00;;;;;;;;5039816;28;8873;-80
2022/04/04 06:05:43;;;;;;;;;15.67;15.67;;;;;;;;5041265;28;8875;-76
2022/04/04 06:08:10;;;;;;;;;15.00;13.33;;;;;;;;5037916;28;8875;-76
2022/04/04 06:10:38;;;;;;;;;14.00;14.00;;;;;;;;5040010;28;8900;-74
2022/04/04 06:13:06;;;;;;;;;18.00;15.00;;;;;;;;5043838;28;8903;-80
2022/04/04 06:15:34;;;;;;;;;15.67;15.00;;;;;;;;5038393;28;8906;-74
2022/04/04 06:18:01;;;;;;;;;16.33;14.67;;;;;;;;5038586;28;8869;-78
2022/04/04 06:20:28;;;;;;;;;15.00;13.33;;;;;;;;5042763;28;8916;-78
2022/04/04 06:22:56;;;;;;;;;18.00;18.00;;;;;;;;5045498;28;8889;-75
2022/04/04 06:25:23;;;;;;;;;18.33;18.33;;;;;;;;5043071;28;8885;-83
2022/04/04 06:27:50;;;;;;;;;16.67;14.33;;;;;;;;5046524;28;8979;-81
2022/04/04 06:30:20;;;;;;;;;17.33;14.67;;;;;;;;5032739;28;8876;-74
2022/04/04 06:32:48;;;;;;;;;12.00;12.00;;;;;;;;5040768;28;8897;-76
2022/04/04 06:35:16;;;;;;;;;19.33;15.00;;;;;;;;5045147;28;8897;-80
2022/04/04 06:37:45;;;;;;;;;17.33;17.33;;;;;;;;5043299;28;8857;-78
2022/04/04 06:40:13;;;;;;;;;19.67;16.00;;;;;;;;5041077;28;8899;-84
2022/04/04 06:42:43;;;;;;;;;11.00;11.00;;;;;;;;5035203;28;8888;-80
2022/04/04 06:45:12;;;;;;;;;12.33;11.33;;;;;;;;5046190;28;8891;-81
2022/04/04 06:47:41;;;;;;;;;19.00;16.33;;;;;;;;5044889;28;8895;-83
2022/04/04 06:50:09;;;;;;;;;20.67;18.67;;;;;;;;5041967;28;8928;-79
2022/04/04 06:52:37;;;;;;;;;13.00;13.00;;;;;;;;5045356;28;8862;-86
2022/04/04 06:55:06;;;;;;;;;16.00;16.00;;;;;;;;5045605;28;8884;-82
2022/04/04 06:57:34;;;;;;;;;15.67;14.33;;;;;;;;5046888;28;8869;-80
2022/04/04 07:00:01;;;;;;;;;20.00;19.00;;;;;;;;5042125;28;8885;-82
2022/04/04 07:02:28;;;;;;;;;17.00;17.00;;;;;;;;5072398;28;8855;-77
2022/04/04 07:04:57;;;;;;;;;16.00;13.67;;;;;;;;5061784;28;8881;-80
2022/04/04 07:07:25;;;;;;;;;12.00;10.67;;;;;;;;5060602;28;8876;-84
2022/04/04 07:09:52;;;;;;;;;18.00;16.67;;;;;;;;5068441;28;8906;-79
2022/04/04 07:12:19;;;;;;;;;13.67;12.00;;;;;;;;5070006;28;8866;-76
2022/04/04 07:14:47;;;;;;;;;14.67;13.67;;;;;;;;5068237;28;8868;-81
2022/04/04 07:17:14;;;;;;;;;16.00;13.00;;;;;;;;5068824;28;8906;-80
2022/04/04 07:19:42;;;;;;;;;9.00;6.00;;;;;;;;5075259;28;8848;-80
2022/04/04 07:22:11;;;;;;;;;19.33;16.67;;;;;;;;5063154;28;11622;-79
2022/04/04 07:24:38;;;;;;;;;13.33;12.00;;;;;;;;5061101;28;11596;-82
2022/04/04 07:27:06;;;;;;;;;18.33;16.00;;;;;;;;5055390;28;11699;-85
2022/04/04 07:29:33;;;;;;;;;17.33;17.33;;;;;;;;5059123;28;11644;-83
2022/04/04 07:32:00;;;;;;;;;16.50;16.50;;;;;;;;5058215;28;11522;-83
2022/04/04 07:34:28;;;;;;;;;14.00;14.00;;;;;;;;5057799;28;11575;-82
2022/04/04 07:36:55;;;;;;;;;15.25;12.50;;;;;;;;5057845;28;11606;-81
2022/04/04 07:39:24;;;;;;;;;14.75;12.75;;;;;;;;5052340;28;11569;-80
2022/04/04 07:41:51;;;;;;;;;16.75;15.00;;;;;;;;5049846;28;11700;-81
2022/04/04 07:44:19;;;;;;;;;17.00;15.25;;;;;;;;5058518;28;11582;-85
2022/04/04 07:46:46;;;;;;;;;16.00;13.50;;;;;;;;5060080;28;11589;-82
2022/04/04 07:49:14;;;;;;;;;10.75;9.50;;;;;;;;5066420;28;11608;-85
2022/04/04 07:51:41;;;;;;;;;12.75;12.50;;;;;;;;5055032;28;11676;-84
2022/04/04 07:54:08;;;;;;;;;17.00;13.00;;;;;;;;5063453;28;11677;-80
2022/04/04 07:56:37;;;;;;;;;12.50;11.25;;;;;;;;5055514;28;11589;-78
2022/04/04 07:59:04;;;;;;;;;9.00;9.00;;;;;;;;5063569;28;11563;-81
2022/04/04 08:01:31;;;;;;;;;11.00;11.00;;;;;;;;5055118;28;11564;-84
2022/04/04 08:03:59;;;;;;;;;9.75;9.75;;;;;;;;5061901;28;11557;-86
2022/04/04 08:06:26;;;;;;;;;10.00;10.00;;;;;;;;5060996;28;11564;-79
2022/04/04 08:08:54;;;;;;;;;9.00;9.00;;;;;;;;5052978;28;11580;-81
2022/04/04 08:11:21;;;;;;;;;9.00;9.00;;;;;;;;5062438;28;11518;-82
2022/04/04 08:13:50;;;;;;;;;9.00;9.00;;;;;;;;5058102;28;11664;-83
2022/04/04 08:16:18;;;;;;;;;9.00;8.75;;;;;;;;5066446;28;11544;-86
2022/04/04 08:18:45;;;;;;;;;10.00;6.00;;;;;;;;5059489;28;11622;-77
2022/04/04 08:21:15;;;;;;;;;8.75;8.75;;;;;;;;5061082;28;11567;-78
2022/04/04 08:23:42;;;;;;;;;7.25;7.25;;;;;;;;5062059;28;11563;-86
2022/04/04 08:26:10;;;;;;;;;8.00;8.00;;;;;;;;5061420;28;12326;-80
2022/04/04 08:28:38;;;;;;;;;5.75;5.75;;;;;;;;5072106;28;11532;-85
2022/04/04 08:31:09;;;;;;;;;5.00;5.00;;;;;;;;5057992;28;11482;-80
2022/04/04 08:33:37;;;;;;;;;5.25;5.25;;;;;;;;5060450;28;11675;-89
2022/04/04 08:36:05;;;;;;;;;5.75;5.75;;;;;;;;5057311;28;11528;-90
2022/04/04 08:38:37;;;;;;;;;4.50;4.50;;;;;;;;5050435;28;11574;-87
2022/04/04 08:41:06;;;;;;;;;5.00;5.00;;;;;;;;5051685;28;11529;-87
2022/04/04 08:43:37;;;;;;;;;5.00;5.00;;;;;;;;5061720;28;11529;-80
2022/04/04 08:46:06;;;;;;;;;2.00;2.00;;;;;;;;5056793;28;11474;-82
2022/04/04 08:48:35;;;;;;;;;5.75;5.00;;;;;;;;5053353;28;11500;-80
2022/04/04 08:51:02;;;;;;;;;3.50;3.50;;;;;;;;5056655;28;11542;-81
2022/04/04 08:53:30;;;;;;;;;9.00;6.00;;;;;;;;5053423;28;11542;-81
2022/04/04 08:55:58;;;;;;;;;4.25;3.50;;;;;;;;5054426;28;11523;-85
2022/04/04 08:58:26;;;;;;;;;5.00;5.00;;;;;;;;5055280;28;11471;-84
2022/04/04 09:00:53;;;;;;;;;7.00;5.75;;;;;;;;5049656;28;11423;-85
2022/04/04 09:03:29;;;;;;;;;5.25;5.25;;;;;;;;5056420;28;11471;-86
2022/04/04 09:05:58;;;;;;;;;2.25;2.25;;;;;;;;5059708;28;11470;-82
2022/04/04 09:08:26;;;;;;;;;3.00;3.00;;;;;;;;5053995;28;11463;-86
2022/04/04 09:10:56;;;;;;;;;4.50;4.50;;;;;;;;5060247;28;11447;-87
2022/04/04 09:13:25;;;;;;;;;5.00;5.00;;;;;;;;5057710;28;12212;-80
2022/04/04 09:15:58;;;;;;;;;2.25;2.25;;;;;;;;5052829;28;11466;-88
2022/04/04 09:18:45;;;;;;;;;3.00;3.00;;;;;;;;5056364;28;11459;-89
2022/04/04 09:21:14;;;;;;;;;3.00;3.00;;;;;;;;5055100;28;11457;-82
2022/04/04 09:23:55;;;;;;;;;4.00;2.50;;;;;;;;5062486;28;11493;-86
2022/04/04 09:26:34;;;;;;;;;3.00;3.00;;;;;;;;5061384;28;11501;-81
2022/04/04 09:29:03;;;;;;;;;2.50;2.50;;;;;;;;5063291;28;11461;-86
2022/04/04 09:31:31;;;;;;;;;2.50;2.50;;;;;;;;5058658;28;11407;-78
2022/04/04 09:34:02;;;;;;;;;5.00;2.75;;;;;;;;5058536;28;11484;-87
2022/04/04 09:36:30;;;;;;;;;4.00;2.75;;;;;;;;5054805;28;11229;-79
2022/04/04 09:39:08;;;;;;;;;5.75;5.75;;;;;;;;5056103;28;11140;-86
2022/04/04 09:41:36;;;;;;;;;3.75;3.00;;;;;;;;5058869;28;10943;-82
2022/04/04 09:44:06;;;;;;;;;5.00;5.00;;;;;;;;5060456;28;10956;-79
2022/04/04 09:46:35;;;;;;;;;4.00;3.00;;;;;;;;5056933;28;10807;-80
2022/04/04 09:49:05;;;;;;;;;3.75;3.00;;;;;;;;5060815;28;10697;-81
2022/04/04 09:51:46;;;;;;;;;4.50;4.50;;;;;;;;5062203;28;10773;-78
2022/04/04 09:54:16;;;;;;;;;11.75;11.75;;;;;;;;5058077;28;11628;-76
2022/04/04 09:56:43;;;;;;;;;5.50;5.50;;;;;;;;5057173;28;11587;-90
2022/04/04 09:59:14;;;;;;;;;8.00;6.75;;;;;;;;5055187;28;11059;-84
2022/04/04 10:01:43;;;;;;;;;2.00;2.00;;;;;;;;5050459;28;10770;-82
2022/04/04 10:04:13;;;;;;;;;2.00;2.00;;;;;;;;5064764;28;10930;-81
2022/04/04 10:06:42;;;;;;;;;3.75;3.00;;;;;;;;5062983;28;10492;-84
2022/04/04 10:09:10;;;;;;;;;3.25;3.25;;;;;;;;5055208;28;10733;-84
2022/04/04 10:11:40;;;;;;;;;9.25;9.25;;;;;;;;5054358;28;11531;-78
2022/04/04 10:14:07;;;;;;;;;15.00;15.00;;;;;;;;5059469;28;11202;-82
2022/04/04 10:16:35;;;;;;;;;16.50;15.25;;;;;;;;5058816;28;12375;-79
2022/04/04 10:19:03;;;;;;;;;13.75;13.75;;;;;;;;5063559;28;11523;-89
2022/04/04 10:21:31;;;;;;;;;20.50;20.50;;;;;;;;5062706;28;11535;-84
2022/04/04 10:24:01;;;;;;;;;29.00;29.00;;;;;;;;5056345;28;11562;-82
2022/04/04 10:26:33;;;;;;;;;25.25;25.25;;;;;;;;5061945;28;11500;-82
2022/04/04 10:29:17;;;;;;;;;19.00;19.00;;;;;;;;5052514;28;11639;-81
2022/04/04 10:31:47;;;;;;;;;7.75;7.75;;;;;;;;5061430;27;12420;-89
2022/04/04 10:34:16;;;;;;;;;5.50;5.50;;;;;;;;5063569;28;12330;-76
2022/04/04 10:37:00;;;;;;;;;5.00;5.00;;;;;;;;5061032;28;11854;-77
2022/04/04 10:39:36;;;;;;;;;6.00;6.00;;;;;;;;5058389;28;11105;-76
2022/04/04 10:42:05;;;;;;;;;6.00;6.00;;;;;;;;5054037;28;11190;-78
2022/04/04 10:44:49;;;;;;;;;2.00;2.00;;;;;;;;5060861;28;10943;-82
2022/04/04 10:47:24;;;;;;;;;5.50;5.50;;;;;;;;5059571;28;10841;-80
2022/04/04 10:49:51;;;;;;;;;35.75;34.50;;;;;;;;5060882;28;11300;-82
2022/04/04 10:52:20;;;;;;;;;41.25;39.50;;;;;;;;5096141;28;11564;-81
2022/04/04 10:54:48;;;;;;;;;50.00;44.75;;;;;;;;5060675;28;12238;-76
2022/04/04 10:57:17;;;;;;;;;26.25;25.25;;;;;;;;5057997;28;11571;-81
2022/04/04 10:59:46;;;;;;;;;9.75;9.75;;;;;;;;5049860;28;11609;-81
2022/04/04 11:02:15;;;;;;;;;6.25;6.00;;;;;;;;5056086;28;11479;-82
2022/04/04 11:07:38;;;;;;;;;11.25;9.25;;;;;;;;5052251;28;11472;-85
2022/04/04 11:07:38;;;;;;;;;25.25;23.75;;;;;;;;5061134;28;11515;-79
2022/04/04 11:10:07;;;;;;;;;18.50;18.50;;;;;;;;5087799;28;11557;-86
2022/04/04 11:12:56;;;;;;;;;19.75;19.75;;;;;;;;5050179;28;11517;-79
2022/04/04 11:15:41;;;;;;;;;19.75;16.75;;;;;;;;5057496;28;11543;-81
2022/04/04 11:18:08;;;;;;;;;12.25;12.25;;;;;;;;5049191;28;11495;-78
2022/04/04 11:20:36;;;;;;;;;10.25;8.25;;;;;;;;5054306;28;12224;-78
2022/04/04 11:23:09;;;;;;;;;12.50;10.00;;;;;;;;5058490;28;11478;-80
2022/04/04 11:25:38;;;;;;;;;16.00;16.00;;;;;;;;5057745;28;11453;-80
2022/04/04 11:28:06;;;;;;;;;13.75;12.00;;;;;;;;5064080;28;11468;-81
2022/04/04 11:30:35;;;;;;;;;7.00;6.75;;;;;;;;5048470;28;11442;-79
2022/04/04 11:33:05;;;;;;;;;4.00;4.00;;;;;;;;5055348;28;11543;-79
2022/04/04 11:35:34;;;;;;;;;5.25;5.25;;;;;;;;5053626;28;10946;-80
2022/04/04 11:38:06;;;;;;;;;5.00;5.00;;;;;;;;5069520;28;10938;-79
2022/04/04 11:40:37;;;;;;;;;6.00;6.00;;;;;;;;5058190;28;10850;-80
2022/04/04 11:43:07;;;;;;;;;4.50;4.50;;;;;;;;5053604;28;11013;-79
2022/04/04 11:45:36;;;;;;;;;7.50;5.00;;;;;;;;5065267;28;10979;-81
2022/04/04 11:48:06;;;;;;;;;7.00;5.25;;;;;;;;5050420;28;11071;-81
2022/04/04 11:50:35;;;;;;;;;3.25;3.25;;;;;;;;5055853;28;11151;-81
2022/04/04 11:53:07;;;;;;;;;4.00;4.00;;;;;;;;5061355;28;11140;-79
2022/04/04 11:55:36;;;;;;;;;6.00;6.00;;;;;;;;5061958;28;11000;-80
2022/04/04 11:58:09;;;;;;;;;6.75;6.75;;;;;;;;5062469;28;11016;-80
2022/04/04 12:00:38;;;;;;;;;9.25;9.25;;;;;;;;5057460;28;10903;-80
2022/04/04 12:03:10;;;;;;;;;11.75;9.25;;;;;;;;5056589;28;11100;-80
2022/04/04 12:05:37;;;;;;;;;7.25;7.25;;;;;;;;5053164;28;11028;-79
2022/04/04 12:08:07;;;;;;;;;11.25;8.00;;;;;;;;5059664;28;11217;-80
2022/04/04 12:10:37;;;;;;;;;8.00;8.00;;;;;;;;5060664;28;11220;-81
2022/04/04 12:13:06;;;;;;;;;9.25;8.25;;;;;;;;5054661;28;11254;-82
2022/04/04 12:15:37;;;;;;;;;7.50;6.50;;;;;;;;5059381;28;10984;-84
2022/04/04 12:18:06;;;;;;;;;6.50;6.50;;;;;;;;5054111;28;10843;-79
2022/04/04 12:20:46;;;;;;;;;7.50;6.00;;;;;;;;5062576;28;11104;-77
2022/04/04 12:26:03;;;;;;;;;7.00;7.00;;;;;;;;5062493;28;10977;-78
2022/04/04 12:28:32;;;;;;;;;9.75;9.75;;;;;;;;5063937;28;12389;-77
2022/04/04 12:31:11;;;;;;;;;9.25;6.75;;;;;;;;5057682;28;11216;-77
2022/04/04 12:33:41;;;;;;;;;12.00;8.25;;;;;;;;5065779;28;11135;-79
2022/04/04 12:36:08;;;;;;;;;10.00;10.00;;;;;;;;5058491;28;11249;-77
2022/04/04 12:38:39;;;;;;;;;10.00;10.00;;;;;;;;5060726;28;11399;-76
2022/04/04 12:41:10;;;;;;;;;8.50;8.50;;;;;;;;5050713;28;11108;-77
2022/04/04 12:43:39;;;;;;;;;8.00;8.00;;;;;;;;5059454;28;11262;-78
2022/04/04 12:46:08;;;;;;;;;9.00;9.00;;;;;;;;5061923;28;11516;-78
2022/04/04 12:48:38;;;;;;;;;7.50;7.50;;;;;;;;5058893;28;11357;-78
2022/04/04 12:51:06;;;;;;;;;10.25;10.25;;;;;;;;5061697;28;11598;-76
2022/04/04 12:53:52;;;;;;;;;10.75;9.00;;;;;;;;5056672;28;11497;-80
2022/04/04 12:56:20;;;;;;;;;7.25;7.25;;;;;;;;5063771;28;11492;-80
2022/04/04 12:59:06;;;;;;;;;11.25;11.25;;;;;;;;5061307;28;11573;-79
2022/04/04 13:01:34;;;;;;;;;9.25;8.50;;;;;;;;5059979;28;11577;-78
2022/04/04 13:04:03;;;;;;;;;12.00;10.25;;;;;;;;5063243;28;11451;-79
2022/04/04 13:06:31;;;;;;;;;7.50;7.50;;;;;;;;5065347;28;12296;-78
2022/04/04 13:09:02;;;;;;;;;15.50;12.00;;;;;;;;5066563;28;11496;-79
2022/04/04 13:11:31;;;;;;;;;14.25;12.00;;;;;;;;5062510;28;11590;-77
2022/04/04 13:14:05;;;;;;;;;11.00;11.00;;;;;;;;5062866;28;11576;-78
2022/04/04 13:16:38;;;;;;;;;10.25;10.25;;;;;;;;5062266;28;11520;-80
2022/04/04 13:19:08;;;;;;;;;10.75;9.50;;;;;;;;5060839;28;11587;-79
2022/04/04 13:21:36;;;;;;;;;10.00;8.25;;;;;;;;5064707;28;12320;-78
2022/04/04 13:24:07;;;;;;;;;8.25;8.25;;;;;;;;5064402;28;11529;-79
2022/04/04 13:26:35;;;;;;;;;10.75;10.75;;;;;;;;5063996;28;11542;-79
2022/04/04 13:29:02;;;;;;;;;7.75;7.75;;;;;;;;5063921;28;11493;-78
2022/04/04 13:31:29;;;;;;;;;9.50;9.50;;;;;;;;5053621;28;11448;-78
2022/04/04 13:33:58;;;;;;;;;10.50;9.50;;;;;;;;5069251;28;11478;-80
2022/04/04 13:36:26;;;;;;;;;14.00;10.00;;;;;;;;5063061;28;11534;-79
2022/04/04 13:38:56;;;;;;;;;8.00;8.00;;;;;;;;5065371;28;11491;-78
2022/04/04 13:41:26;;;;;;;;;10.00;10.00;;;;;;;;5063550;28;11546;-79
2022/04/04 13:43:54;;;;;;;;;10.50;10.50;;;;;;;;5066637;28;11526;-79
2022/04/04 13:46:23;;;;;;;;;8.25;8.25;;;;;;;;5066799;28;11503;-78
2022/04/04 13:48:50;;;;;;;;;11.25;11.25;;;;;;;;5062616;28;11481;-77
2022/04/04 13:51:20;;;;;;;;;10.00;10.00;;;;;;;;5063689;28;11564;-79
2022/04/04 13:53:48;;;;;;;;;7.25;7.25;;;;;;;;5062990;28;11508;-80
2022/04/04 13:56:17;;;;;;;;;9.75;9.75;;;;;;;;5047544;28;11492;-76
2022/04/04 13:58:46;;;;;;;;;7.50;7.50;;;;;;;;5061900;28;11501;-77
2022/04/04 14:01:14;;;;;;;;;10.75;10.75;;;;;;;;5059734;28;11429;-78
2022/04/04 14:03:43;;;;;;;;;8.75;8.75;;;;;;;;5057652;28;11602;-79
2022/04/04 14:06:10;;;;;;;;;14.25;9.50;;;;;;;;5060215;28;12057;-78
2022/04/04 14:08:38;;;;;;;;;11.75;11.75;;;;;;;;5059960;28;11519;-79
2022/04/04 14:11:07;;;;;;;;;10.25;10.25;;;;;;;;5061003;28;12463;-78
2022/04/04 14:13:36;;;;;;;;;7.75;7.00;;;;;;;;5063746;28;11537;-79
2022/04/04 14:16:06;;;;;;;;;13.50;11.00;;;;;;;;5048459;28;11470;-80
2022/04/04 14:18:34;;;;;;;;;7.00;7.00;;;;;;;;5065022;28;11546;-77
2022/04/04 14:21:02;;;;;;;;;11.75;10.75;;;;;;;;5065580;28;11583;-76
2022/04/04 14:23:30;;;;;;;;;16.00;10.75;;;;;;;;5056977;28;11641;-78
2022/04/04 14:25:57;;;;;;;;;10.25;10.25;;;;;;;;5063943;28;11531;-76
2022/04/04 14:28:27;;;;;;;;;12.00;12.00;;;;;;;;5061452;28;11482;-77
2022/04/04 14:30:56;;;;;;;;;15.25;10.00;;;;;;;;5063752;28;11409;-78
2022/04/04 14:33:26;;;;;;;;;12.75;11.00;;;;;;;;5067647;28;13142;-76
2022/04/04 14:35:54;;;;;;;;;10.25;10.25;;;;;;;;5063033;28;11575;-78
2022/04/04 14:38:22;;;;;;;;;10.00;10.00;;;;;;;;5060978;28;11499;-78
2022/04/04 14:40:50;;;;;;;;;10.50;10.50;;;;;;;;5057796;28;11520;-77
2022/04/04 14:43:17;;;;;;;;;14.25;12.50;;;;;;;;5060039;28;11518;-78
2022/04/04 14:45:45;;;;;;;;;6.25;6.00;;;;;;;;5069981;28;11485;-80
2022/04/04 14:48:12;;;;;;;;;11.00;10.00;;;;;;;;5062251;28;11582;-76
2022/04/04 14:50:43;;;;;;;;;10.00;10.00;;;;;;;;5056338;28;11527;-80
2022/04/04 14:53:11;;;;;;;;;11.25;10.00;;;;;;;;5062230;28;11589;-76